createdAt,value
2023-01-11T00:00:47.329Z,98666.19
2023-01-11T00:03:14.793Z,98671.09
2023-01-11T00:05:42.924Z,98672.16
2023-01-11T00:08:10.370Z,98684.34
2023-01-11T00:10:36.878Z,98689.56
2023-01-11T00:13:03.786Z,98719.34
2023-01-11T00:15:31.333Z,98698.16
2023-01-11T00:17:57.859Z,98708.88
2023-01-11T00:20:24.908Z,98729.03
2023-01-11T00:22:51.427Z,98719.94
2023-01-11T00:25:18.369Z,98705.56
2023-01-11T00:27:44.877Z,98730.63
2023-01-11T00:30:12.270Z,98731.63
2023-01-11T00:32:38.799Z,98730.81
2023-01-11T00:35:05.815Z,98741.25
2023-01-11T00:37:32.559Z,98710.97
2023-01-11T00:39:59.021Z,98706.19
2023-01-11T00:42:28.555Z,98715.16
2023-01-11T00:44:55.082Z,98717.81
2023-01-11T00:47:21.586Z,98716.41
2023-01-11T00:49:48.099Z,98709.34
2023-01-11T00:52:14.848Z,98693.06
2023-01-11T00:54:42.160Z,98715.66
2023-01-11T00:57:09.201Z,98738.59
2023-01-11T00:59:38.999Z,98724.00
2023-01-11T01:02:05.615Z,98750.88
2023-01-11T01:04:32.570Z,98715.03
2023-01-11T01:06:59.055Z,98752.94
2023-01-11T01:09:26.065Z,98725.22
2023-01-11T01:11:52.744Z,98749.31
2023-01-11T01:14:19.213Z,98762.91
2023-01-11T01:16:47.254Z,98747.81
2023-01-11T01:19:14.134Z,98742.06
2023-01-11T01:21:40.768Z,98694.78
2023-01-11T01:24:07.485Z,98714.66
2023-01-11T01:26:33.953Z,98699.03
2023-01-11T01:29:01.077Z,98705.34
2023-01-11T01:31:27.695Z,98635.63
2023-01-11T01:33:54.325Z,98623.66
2023-01-11T01:36:20.728Z,98597.28
2023-01-11T01:38:47.226Z,98641.69
2023-01-11T01:41:14.148Z,98619.75
2023-01-11T01:43:51.723Z,98597.84
2023-01-11T01:46:20.676Z,98586.59
2023-01-11T01:48:52.847Z,98587.13
2023-01-11T01:51:28.009Z,98578.25
2023-01-11T01:53:58.616Z,98590.78
2023-01-11T01:56:35.793Z,98594.97
2023-01-11T01:59:10.829Z,98587.13
2023-01-11T02:01:37.383Z,98586.59
2023-01-11T02:04:10.418Z,98551.34
2023-01-11T02:06:37.446Z,98607.22
2023-01-11T02:09:16.089Z,98565.16
2023-01-11T02:11:43.558Z,98584.00
2023-01-11T02:14:14.319Z,98621.31
2023-01-11T02:16:40.875Z,98579.78
2023-01-11T02:19:11.916Z,98670.13
2023-01-11T02:22:08.807Z,98683.94
2023-01-11T02:25:09.187Z,98704.84
2023-01-11T02:28:02.885Z,98654.31
2023-01-11T02:30:51.112Z,98709.28
2023-01-11T02:33:29.093Z,98694.94
2023-01-11T02:36:12.833Z,98691.28
2023-01-11T02:38:43.787Z,98678.75
2023-01-11T02:41:35.072Z,98660.47
2023-01-11T02:44:12.771Z,98626.00
2023-01-11T02:46:50.983Z,98697.03
2023-01-11T02:49:35.496Z,98694.13
2023-01-11T02:52:27.064Z,98696.22
2023-01-11T02:54:58.244Z,98641.34
2023-01-11T02:57:27.050Z,98652.06
2023-01-11T02:59:54.937Z,98714.22
2023-01-11T03:02:21.499Z,98669.53
2023-01-11T03:04:47.905Z,98627.22
2023-01-11T03:07:21.223Z,98610.03
2023-01-11T03:09:47.622Z,98650.56
2023-01-11T03:12:32.103Z,98615.31
2023-01-11T03:15:17.179Z,98590.25
2023-01-11T03:17:49.662Z,98588.16
2023-01-11T03:20:30.818Z,98562.84
2023-01-11T03:23:12.302Z,98555.00
2023-01-11T03:25:54.684Z,98549.50
2023-01-11T03:28:36.380Z,98265.09
2023-01-11T03:31:30.338Z,98289.31
2023-01-11T03:34:11.773Z,98241.28
2023-01-11T03:37:22.677Z,98194.63
2023-01-11T03:39:57.658Z,98224.03
2023-01-11T03:42:27.422Z,98215.00
2023-01-11T03:44:57.414Z,98273.13
2023-01-11T03:47:28.469Z,98339.47
2023-01-11T03:50:01.947Z,98401.00
2023-01-11T03:52:35.781Z,98384.34
2023-01-11T03:55:05.921Z,98418.78
2023-01-11T03:57:36.093Z,98412.22
2023-01-11T04:00:04.611Z,98407.03
2023-01-11T04:02:38.983Z,98449.81
2023-01-11T04:05:07.115Z,98451.38
2023-01-11T04:07:33.567Z,98466.25
2023-01-11T04:10:00.160Z,98484.53
2023-01-11T04:12:26.766Z,98469.94
2023-01-11T04:14:53.401Z,98479.06
2023-01-11T04:17:20.094Z,98477.47
2023-01-11T04:19:46.504Z,98495.50
2023-01-11T04:22:13.210Z,98505.94
2023-01-11T04:24:39.664Z,98523.69
2023-01-11T04:27:06.226Z,98527.06
2023-01-11T04:29:32.737Z,98524.72
2023-01-11T04:31:59.159Z,98557.09
2023-01-11T04:34:25.548Z,98543.25
2023-01-11T04:36:52.063Z,98549.53
2023-01-11T04:39:18.531Z,98554.75
2023-01-11T04:41:44.986Z,98547.44
2023-01-11T04:44:11.732Z,98554.22
2023-01-11T04:46:38.163Z,98529.16
2023-01-11T04:49:04.623Z,98531.53
2023-01-11T04:51:31.112Z,98490.78
2023-01-11T04:53:57.542Z,98392.94
2023-01-11T04:56:24.083Z,98418.00
2023-01-11T04:58:50.500Z,98443.56
2023-01-11T05:01:18.869Z,98426.34
2023-01-11T05:03:45.868Z,98453.47
2023-01-11T05:06:13.109Z,98459.22
2023-01-11T05:08:39.674Z,98433.09
2023-01-11T05:11:07.810Z,98493.38
2023-01-11T05:13:34.641Z,98493.13
2023-01-11T05:16:01.049Z,98508.50
2023-01-11T05:18:27.501Z,98515.25
2023-01-11T05:20:53.940Z,98497.75
2023-01-11T05:23:20.382Z,98518.06
2023-01-11T05:25:46.820Z,98579.38
2023-01-11T05:28:13.276Z,98510.84
2023-01-11T05:30:39.683Z,98626.28
2023-01-11T05:33:06.121Z,98651.50
2023-01-11T05:35:32.704Z,98751.94
2023-01-11T05:37:59.087Z,98807.09
2023-01-11T05:40:25.512Z,98887.75
2023-01-11T05:42:51.935Z,98878.56
2023-01-11T05:45:18.363Z,99037.75
2023-01-11T05:47:44.810Z,98989.19
2023-01-11T05:50:11.293Z,99049.31
2023-01-11T05:52:37.710Z,98989.25
2023-01-11T05:55:04.572Z,99021.06
2023-01-11T05:57:30.964Z,99025.19
2023-01-11T05:59:57.420Z,98921.38
2023-01-11T06:02:23.993Z,99027.50
2023-01-11T06:04:50.550Z,98917.88
2023-01-11T06:07:16.980Z,98924.53
2023-01-11T06:09:43.411Z,98777.72
2023-01-11T06:12:09.850Z,98783.69
2023-01-11T06:14:38.166Z,98816.50
2023-01-11T06:17:04.784Z,98828.03
2023-01-11T06:19:31.262Z,98859.03
2023-01-11T06:21:57.700Z,98851.00
2023-01-11T06:24:24.149Z,98889.09
2023-01-11T06:26:53.728Z,98879.31
2023-01-11T06:29:20.289Z,98925.78
2023-01-11T06:31:46.753Z,98950.72
2023-01-11T06:34:13.227Z,98920.28
2023-01-11T06:36:39.641Z,98985.00
2023-01-11T06:39:06.078Z,99015.78
2023-01-11T06:41:32.724Z,99032.25
2023-01-11T06:43:59.286Z,99044.44
2023-01-11T06:46:27.575Z,99083.66
2023-01-11T06:48:55.493Z,99052.50
2023-01-11T06:51:22.016Z,99114.75
2023-01-11T06:53:48.525Z,99084.25
2023-01-11T06:56:17.030Z,99124.50
2023-01-11T06:58:45.579Z,99161.34
2023-01-11T07:01:13.668Z,99196.22
2023-01-11T07:03:40.226Z,99204.16
2023-01-11T07:06:06.835Z,99219.84
2023-01-11T07:08:33.354Z,99265.72
2023-01-11T07:10:59.935Z,99292.44
2023-01-11T07:13:26.525Z,99253.38
2023-01-11T07:15:57.426Z,99331.06
2023-01-11T07:18:23.901Z,99303.28
2023-01-11T07:20:51.633Z,99340.78
2023-01-11T07:23:18.340Z,99349.41
2023-01-11T07:25:44.776Z,99330.59
2023-01-11T07:28:11.353Z,99386.97
2023-01-11T07:30:56.111Z,99366.63
2023-01-11T07:33:24.235Z,99404.63
2023-01-11T07:35:50.725Z,99394.09
2023-01-11T07:38:17.218Z,99422.97
2023-01-11T07:40:43.674Z,99383.59
2023-01-11T07:43:12.947Z,99428.56
2023-01-11T07:45:45.735Z,99477.69
2023-01-11T07:48:13.254Z,99429.63
2023-01-11T07:50:42.827Z,99495.06
2023-01-11T07:53:10.870Z,99497.47
2023-01-11T07:55:37.662Z,99486.72
2023-01-11T07:58:04.152Z,99533.78
2023-01-11T08:00:30.696Z,99130.66
2023-01-11T08:02:57.378Z,99200.47
2023-01-11T08:05:24.949Z,99207.34
2023-01-11T08:07:51.447Z,99184.78
2023-01-11T08:10:18.229Z,99231.44
2023-01-11T08:12:51.493Z,99204.91
2023-01-11T08:15:18.148Z,99277.22
2023-01-11T08:17:44.679Z,99282.00
2023-01-11T08:20:11.292Z,99237.66
2023-01-11T08:22:37.941Z,99345.75
2023-01-11T08:25:04.645Z,99338.06
2023-01-11T08:27:31.180Z,99326.97
2023-01-11T08:29:57.844Z,99343.84
2023-01-11T08:32:28.003Z,99339.88
2023-01-11T08:34:54.525Z,99350.63
2023-01-11T08:37:20.955Z,99343.50
2023-01-11T08:39:47.486Z,99342.50
2023-01-11T08:42:14.194Z,99352.06
2023-01-11T08:44:40.662Z,99368.94
2023-01-11T08:47:07.131Z,99339.75
2023-01-11T08:49:33.620Z,99349.94
2023-01-11T08:52:00.124Z,99282.03
2023-01-11T08:54:26.663Z,99325.84
2023-01-11T08:56:53.115Z,99357.84
2023-01-11T08:59:19.566Z,99356.38
2023-01-11T09:01:46.091Z,99349.16
2023-01-11T09:04:24.381Z,99366.53
2023-01-11T09:06:52.924Z,99359.44
2023-01-11T09:09:19.513Z,99379.78
2023-01-11T09:11:45.970Z,99378.22
2023-01-11T09:14:12.642Z,99374.41
2023-01-11T09:16:39.114Z,99370.00
2023-01-11T09:19:05.599Z,99382.00
2023-01-11T09:21:32.104Z,99335.00
2023-01-11T09:23:58.643Z,99399.81
2023-01-11T09:26:25.163Z,99406.03
2023-01-11T09:28:51.740Z,99416.59
2023-01-11T09:31:18.299Z,99364.84
2023-01-11T09:33:44.771Z,99368.34
2023-01-11T09:36:11.348Z,99435.06
2023-01-11T09:38:37.846Z,99449.16
2023-01-11T09:41:21.010Z,99436.84
2023-01-11T09:44:05.570Z,99446.56
2023-01-11T09:46:33.372Z,99442.63
2023-01-11T09:49:00.076Z,99414.06
2023-01-11T09:51:35.373Z,99484.69
2023-01-11T09:54:02.873Z,99505.97
2023-01-11T09:56:37.322Z,99491.63
2023-01-11T09:59:28.352Z,99493.09
2023-01-11T10:02:17.828Z,99507.72
2023-01-11T10:04:55.182Z,99520.28
2023-01-11T10:07:43.523Z,99533.91
2023-01-11T10:18:39.108Z,99680.72
2023-01-11T10:19:53.929Z,99814.97
2023-01-11T10:22:28.866Z,99843.97
2023-01-11T10:24:59.042Z,99967.81
2023-01-11T10:27:33.287Z,100019.84
2023-01-11T10:30:06.349Z,99999.38
2023-01-11T10:32:41.295Z,100122.28
2023-01-11T10:35:18.467Z,100088.06
2023-01-11T10:37:48.352Z,100113.16
2023-01-11T10:40:14.736Z,100047.44
2023-01-11T10:42:57.982Z,100071.97
2023-01-11T10:45:35.796Z,100125.56
2023-01-11T10:48:20.549Z,100130.63
2023-01-11T10:51:13.100Z,100136.19
2023-01-11T10:53:47.677Z,100056.78
2023-01-11T10:56:36.009Z,100121.41
2023-01-11T10:59:40.140Z,100149.97
2023-01-11T11:02:37.253Z,100164.06
2023-01-11T11:05:24.127Z,100133.16
2023-01-11T11:08:04.656Z,100156.19
2023-01-11T11:10:37.291Z,100153.72
2023-01-11T11:13:17.558Z,100140.19
2023-01-11T11:16:08.144Z,100133.50
2023-01-11T11:18:34.863Z,100156.66
2023-01-11T11:21:06.819Z,100183.00
2023-01-11T11:23:35.071Z,100205.94
2023-01-11T11:26:04.217Z,100183.28
2023-01-11T11:28:32.846Z,100246.25
2023-01-11T11:31:03.926Z,100256.16
2023-01-11T11:33:39.168Z,100189.13
2023-01-11T11:36:07.362Z,100250.13
2023-01-11T11:38:41.330Z,100262.56
2023-01-11T11:41:13.888Z,100229.94
2023-01-11T11:43:46.134Z,100205.53
2023-01-11T11:46:19.434Z,100310.44
2023-01-11T11:49:18.357Z,100314.91
2023-01-11T11:51:47.059Z,100347.97
2023-01-11T11:54:32.639Z,100367.16
2023-01-11T11:57:14.503Z,100352.31
2023-01-11T11:59:46.053Z,100352.81
2023-01-11T12:02:28.041Z,100423.44
2023-01-11T12:04:57.215Z,100356.28
2023-01-11T12:07:49.715Z,100515.44
2023-01-11T12:10:23.511Z,100540.09
2023-01-11T12:12:53.066Z,100521.97
2023-01-11T12:15:25.523Z,100531.22
2023-01-11T12:17:52.044Z,100612.34
2023-01-11T12:20:39.494Z,100651.97
2023-01-11T12:23:26.214Z,100582.38
2023-01-11T12:26:11.624Z,100649.47
2023-01-11T12:28:46.867Z,100642.69
2023-01-11T12:31:28.683Z,100646.13
2023-01-11T12:34:17.323Z,100690.09
2023-01-11T12:36:58.903Z,100660.94
2023-01-11T12:39:30.398Z,100654.97
2023-01-11T12:42:07.364Z,100694.16
2023-01-11T12:44:54.030Z,100706.03
2023-01-11T12:47:39.847Z,100685.53
2023-01-11T12:50:19.369Z,100745.78
2023-01-11T12:53:09.102Z,100759.44
2023-01-11T12:55:45.820Z,100734.47
2023-01-11T12:58:20.159Z,100752.81
2023-01-11T13:01:09.336Z,100749.97
2023-01-11T13:03:57.271Z,100766.59
2023-01-11T13:06:29.708Z,100784.44
2023-01-11T13:09:29.494Z,100795.59
2023-01-11T13:12:04.906Z,100798.66
2023-01-11T13:14:46.529Z,100787.78
2023-01-11T13:17:31.832Z,100782.59
2023-01-11T13:20:37.127Z,100759.88
2023-01-11T13:23:26.144Z,100720.78
2023-01-11T13:25:55.272Z,100717.38
2023-01-11T13:28:38.899Z,100659.63
2023-01-11T13:31:10.422Z,100621.31
2023-01-11T13:33:40.763Z,100666.56
2023-01-11T13:36:22.635Z,100606.28
2023-01-11T13:38:58.962Z,100670.16
2023-01-11T13:41:48.818Z,100652.50
2023-01-11T13:44:22.519Z,100662.56
2023-01-11T13:46:53.866Z,100678.50
2023-01-11T13:49:44.248Z,100640.31
2023-01-11T13:52:16.206Z,100762.59
2023-01-11T13:54:45.616Z,100754.66
2023-01-11T13:57:23.320Z,100795.78
2023-01-11T13:59:55.053Z,100779.56
2023-01-11T14:02:32.464Z,100837.41
2023-01-11T14:05:06.959Z,100760.72
2023-01-11T14:07:51.493Z,100829.56
2023-01-11T14:10:47.093Z,100838.63
2023-01-11T14:13:31.808Z,100829.97
2023-01-11T14:16:05.673Z,100828.75
2023-01-11T14:19:00.547Z,100847.84
2023-01-11T14:22:05.161Z,100828.91
2023-01-11T14:24:36.811Z,100837.19
2023-01-11T14:27:40.255Z,100794.44
2023-01-11T14:30:28.932Z,100848.84
2023-01-11T14:33:23.813Z,100855.66
2023-01-11T14:36:02.306Z,100862.91
2023-01-11T14:38:41.012Z,100858.91
2023-01-11T14:41:29.191Z,100867.69
2023-01-11T14:44:11.340Z,100877.38
2023-01-11T14:47:17.661Z,100855.84
2023-01-11T14:49:52.240Z,100825.94
2023-01-11T14:52:34.587Z,100822.88
2023-01-11T14:55:15.983Z,100821.91
2023-01-11T14:57:44.509Z,100885.53
2023-01-11T15:00:16.978Z,100907.00
2023-01-11T15:02:43.533Z,100819.63
2023-01-11T15:05:11.847Z,100843.50
2023-01-11T15:07:41.400Z,100824.81
2023-01-11T15:10:29.262Z,100900.50
2023-01-11T15:12:56.974Z,100821.19
2023-01-11T15:15:27.755Z,100910.16
2023-01-11T15:17:56.799Z,100856.38
2023-01-11T15:20:24.518Z,100863.09
2023-01-11T15:23:00.433Z,100894.94
2023-01-11T15:25:34.810Z,100909.56
2023-01-11T15:28:04.975Z,100907.56
2023-01-11T15:30:31.365Z,100898.91
2023-01-11T15:33:16.727Z,100896.63
2023-01-11T15:35:55.500Z,100913.84
2023-01-11T15:38:24.715Z,100892.63
2023-01-11T15:40:53.424Z,100911.81
2023-01-11T15:43:45.687Z,100906.59
2023-01-11T15:46:36.225Z,100839.41
2023-01-11T15:49:21.103Z,100911.78
2023-01-11T15:52:14.981Z,100921.75
2023-01-11T15:54:56.652Z,100926.59
2023-01-11T15:57:26.310Z,100931.19
2023-01-11T15:59:55.723Z,100946.44
2023-01-11T16:02:44.172Z,100935.53
2023-01-11T16:05:21.733Z,100919.47
2023-01-11T16:08:05.895Z,100892.03
2023-01-11T16:10:45.208Z,100950.53
2023-01-11T16:13:14.503Z,100930.28
2023-01-11T16:16:02.451Z,100958.00
2023-01-11T16:18:36.997Z,100892.16
2023-01-11T16:21:23.757Z,100969.81
2023-01-11T16:23:50.348Z,100900.78
2023-01-11T16:26:20.029Z,100950.22
2023-01-11T16:28:52.170Z,100957.59
2023-01-11T16:31:19.314Z,100962.50
2023-01-11T16:33:47.565Z,100897.28
2023-01-11T16:36:20.742Z,100976.97
2023-01-11T16:39:04.286Z,100988.63
2023-01-11T16:41:45.080Z,100978.38
2023-01-11T16:44:44.449Z,100977.84
2023-01-11T16:47:12.178Z,101000.69
2023-01-11T16:49:40.477Z,100989.78
2023-01-11T16:52:28.811Z,100982.03
2023-01-11T16:54:58.081Z,100886.31
2023-01-11T16:57:32.979Z,100960.03
2023-01-11T17:00:01.998Z,100939.22
2023-01-11T17:02:30.613Z,100928.81
2023-01-11T17:04:57.136Z,100917.78
2023-01-11T17:07:30.618Z,100827.75
2023-01-11T17:10:19.028Z,100882.16
2023-01-11T17:12:48.427Z,100836.56
2023-01-11T17:15:29.195Z,100767.25
2023-01-11T17:17:55.823Z,100804.75
2023-01-11T17:20:27.712Z,100816.41
2023-01-11T17:22:54.560Z,100774.72
2023-01-11T17:25:29.598Z,100723.06
2023-01-11T17:28:06.844Z,100673.38
2023-01-11T17:30:34.310Z,100725.53
2023-01-11T17:33:00.957Z,100718.28
2023-01-11T17:35:33.172Z,100631.25
2023-01-11T17:38:04.848Z,100704.13
2023-01-11T17:40:33.617Z,100670.34
2023-01-11T17:43:14.969Z,100683.47
2023-01-11T17:45:42.382Z,100679.22
2023-01-11T17:48:14.426Z,100686.72
2023-01-11T17:50:48.136Z,100723.59
2023-01-11T17:53:21.132Z,100708.53
2023-01-11T17:55:52.297Z,100744.59
2023-01-11T17:58:23.692Z,100717.50
2023-01-11T18:01:05.537Z,100751.78
2023-01-11T18:03:55.024Z,100750.22
2023-01-11T18:06:27.562Z,100764.63
2023-01-11T18:08:56.057Z,100790.31
2023-01-11T18:11:41.853Z,100777.25
2023-01-11T18:14:19.305Z,100760.63
2023-01-11T18:16:55.568Z,100770.28
2023-01-11T18:19:30.936Z,100780.09
2023-01-11T18:21:57.415Z,100764.44
2023-01-11T18:24:33.585Z,100768.47
2023-01-11T18:27:14.205Z,100724.16
2023-01-11T18:29:40.645Z,100645.81
2023-01-11T18:32:11.665Z,100589.75
2023-01-11T18:34:38.381Z,100549.94
2023-01-11T18:37:05.673Z,100526.47
2023-01-11T18:39:35.542Z,100495.03
2023-01-11T18:42:04.400Z,100428.34
2023-01-11T18:44:30.870Z,100508.31
2023-01-11T18:46:57.382Z,100527.34
2023-01-11T18:49:23.804Z,100518.31
2023-01-11T18:51:50.269Z,100514.94
2023-01-11T18:54:18.095Z,100534.75
2023-01-11T18:56:44.571Z,100565.56
2023-01-11T18:59:11.018Z,100602.06
2023-01-11T19:01:52.796Z,100555.34
2023-01-11T19:04:22.746Z,100528.84
2023-01-11T19:06:49.202Z,100584.81
2023-01-11T19:09:15.645Z,100551.91
2023-01-11T19:11:42.128Z,100623.25
2023-01-11T19:14:10.097Z,100629.31
2023-01-11T19:16:36.585Z,100638.09
2023-01-11T19:19:03.034Z,100618.03
2023-01-11T19:21:29.662Z,100593.03
2023-01-11T19:23:57.953Z,100544.94
2023-01-11T19:26:24.511Z,100438.13
2023-01-11T19:28:51.051Z,100487.69
2023-01-11T19:31:17.611Z,100385.72
2023-01-11T19:33:44.107Z,100450.19
2023-01-11T19:36:10.799Z,100407.38
2023-01-11T19:38:37.357Z,100266.91
2023-01-11T19:41:06.892Z,100285.72
2023-01-11T19:43:33.980Z,100259.94
2023-01-11T19:46:00.591Z,100127.19
2023-01-11T19:48:27.082Z,100173.53
2023-01-11T19:51:02.054Z,100161.34
2023-01-11T19:53:32.538Z,100155.94
2023-01-11T19:56:07.267Z,100097.97
2023-01-11T19:58:36.815Z,100111.94
2023-01-11T20:01:11.216Z,100109.34
2023-01-11T20:03:37.821Z,100023.28
2023-01-11T20:06:06.063Z,100011.13
2023-01-11T20:08:32.552Z,100026.28
2023-01-11T20:11:05.120Z,99972.63
2023-01-11T20:13:31.581Z,99983.38
2023-01-11T20:15:58.028Z,99994.94
2023-01-11T20:18:24.560Z,99947.34
2023-01-11T20:20:57.548Z,99942.78
2023-01-11T20:23:24.065Z,99981.09
2023-01-11T20:25:50.700Z,99921.13
2023-01-11T20:28:17.152Z,99923.38
2023-01-11T20:30:43.592Z,99902.22
2023-01-11T20:33:10.169Z,99974.59
2023-01-11T20:35:37.116Z,99945.03
2023-01-11T20:38:03.544Z,99959.81
2023-01-11T20:40:29.987Z,99881.31
2023-01-11T20:42:56.470Z,99961.66
2023-01-11T20:45:22.919Z,99895.81
2023-01-11T20:47:49.343Z,99896.56
2023-01-11T20:50:15.883Z,99930.06
2023-01-11T20:52:42.276Z,99942.88
2023-01-11T20:55:09.306Z,99912.72
2023-01-11T20:57:35.740Z,99898.09
2023-01-11T21:00:02.165Z,99894.09
2023-01-11T21:02:28.625Z,99891.06
2023-01-11T21:04:55.064Z,99886.28
2023-01-11T21:07:21.554Z,99823.19
2023-01-11T21:09:47.969Z,99875.31
2023-01-11T21:12:14.399Z,99861.75
2023-01-11T21:14:40.836Z,99872.31
2023-01-11T21:17:07.248Z,99848.88
2023-01-11T21:19:33.710Z,99861.81
2023-01-11T21:22:00.197Z,99828.84
2023-01-11T21:24:26.818Z,99860.53
2023-01-11T21:26:53.245Z,99829.44
2023-01-11T21:29:19.702Z,99804.13
2023-01-11T21:31:46.612Z,99833.53
2023-01-11T21:34:14.037Z,99861.09
2023-01-11T21:36:42.534Z,99862.91
2023-01-11T21:39:13.402Z,99884.28
2023-01-11T21:41:39.939Z,99930.53
2023-01-11T21:44:07.743Z,99946.91
2023-01-11T21:46:34.822Z,99965.94
2023-01-11T21:49:01.364Z,99976.97
2023-01-11T21:51:27.796Z,99998.16
2023-01-11T21:53:54.255Z,99906.19
2023-01-11T21:56:20.819Z,99978.53
2023-01-11T21:58:47.283Z,99979.59
2023-01-11T22:01:13.844Z,99977.41
2023-01-11T22:03:40.521Z,99956.00
2023-01-11T22:06:07.103Z,99950.81
2023-01-11T22:08:35.093Z,99935.81
2023-01-11T22:11:04.399Z,99893.38
2023-01-11T22:13:32.293Z,99939.63
2023-01-11T22:16:13.058Z,99910.03
2023-01-11T22:18:39.798Z,99874.44
2023-01-11T22:21:12.339Z,99944.25
2023-01-11T22:23:39.364Z,99929.66
2023-01-11T22:26:07.886Z,99935.03
2023-01-11T22:28:34.478Z,99926.59
2023-01-11T22:31:05.968Z,99930.66
2023-01-11T22:33:32.418Z,99861.91
2023-01-11T22:35:58.928Z,99943.97
2023-01-11T22:38:25.376Z,99882.38
2023-01-11T22:40:51.817Z,99920.63
2023-01-11T22:43:18.335Z,99854.50
2023-01-11T22:45:56.243Z,99877.63
2023-01-11T22:48:22.737Z,99916.84
2023-01-11T22:50:49.376Z,99920.22
2023-01-11T22:53:16.018Z,99841.28
2023-01-11T22:55:42.501Z,99934.09
2023-01-11T22:58:08.955Z,99932.53
2023-01-11T23:00:35.420Z,99939.16
2023-01-11T23:03:01.882Z,99925.75
2023-01-11T23:05:28.634Z,99903.66
2023-01-11T23:07:55.098Z,99900.81
2023-01-11T23:10:21.899Z,99916.34
2023-01-11T23:12:48.389Z,99855.47
2023-01-11T23:15:14.898Z,99897.44
2023-01-11T23:17:41.355Z,99910.84
2023-01-11T23:20:08.555Z,99856.81
2023-01-11T23:22:34.994Z,99915.19
2023-01-11T23:25:01.397Z,99883.91
2023-01-11T23:27:27.834Z,99912.41
2023-01-11T23:29:54.302Z,99857.00
2023-01-11T23:32:20.835Z,99897.84
2023-01-11T23:34:47.323Z,99900.88
2023-01-11T23:37:13.775Z,99901.63
2023-01-11T23:39:40.215Z,99892.25
2023-01-11T23:42:06.645Z,99875.84
2023-01-11T23:44:33.131Z,99863.25
2023-01-11T23:46:59.604Z,99789.31
2023-01-11T23:49:26.758Z,99850.47
2023-01-11T23:51:54.002Z,99759.16
2023-01-11T23:54:20.636Z,99748.97
2023-01-11T23:56:47.267Z,99797.25
2023-01-11T23:59:14.286Z,99778.03
